sensor_id;sensor_type;location;lat;lon;timestamp;temperature;humidity
4052;DHT22;2040;50.924;11.604;2023-03-12T00:01:19;-3.30;99.90
4052;DHT22;2040;50.924;11.604;2023-03-12T00:03:46;-3.30;99.90
4052;DHT22;2040;50.924;11.604;2023-03-12T00:06:13;-3.30;99.90
4052;DHT22;2040;50.924;11.604;2023-03-12T00:08:39;-3.40;99.90
4052;DHT22;2040;50.924;11.604;2023-03-12T00:11:09;-3.50;99.90
4052;DHT22;2040;50.924;11.604;2023-03-12T00:13:36;-3.50;99.90
4052;DHT22;2040;50.924;11.604;2023-03-12T00:16:13;-3.50;99.90
4052;DHT22;2040;50.924;11.604;2023-03-12T00:18:39;-3.50;99.90
4052;DHT22;2040;50.924;11.604;2023-03-12T00:21:05;-3.60;99.90
4052;DHT22;2040;50.924;11.604;2023-03-12T00:23:31;-3.70;99.90
4052;DHT22;2040;50.924;11.604;2023-03-12T00:26:09;-3.70;99.90
4052;DHT22;2040;50.924;11.604;2023-03-12T00:28:35;-3.60;99.90
4052;DHT22;2040;50.924;11.604;2023-03-12T00:31:03;-3.60;99.90
4052;DHT22;2040;50.924;11.604;2023-03-12T00:33:37;-3.70;99.90
4052;DHT22;2040;50.924;11.604;2023-03-12T00:36:03;-3.70;99.90
4052;DHT22;2040;50.924;11.604;2023-03-12T00:38:28;-3.60;99.90
4052;DHT22;2040;50.924;11.604;2023-03-12T00:40:54;-3.60;99.90
4052;DHT22;2040;50.924;11.604;2023-03-12T00:43:19;-3.70;99.90
4052;DHT22;2040;50.924;11.604;2023-03-12T00:45:45;-3.70;99.90
4052;DHT22;2040;50.924;11.604;2023-03-12T00:48:10;-3.70;99.90
4052;DHT22;2040;50.924;11.604;2023-03-12T00:50:36;-3.80;99.90
4052;DHT22;2040;50.924;11.604;2023-03-12T00:53:02;-3.80;99.90
4052;DHT22;2040;50.924;11.604;2023-03-12T00:55:27;-3.80;99.90
4052;DHT22;2040;50.924;11.604;2023-03-12T00:57:53;-3.80;99.90
4052;DHT22;2040;50.924;11.604;2023-03-12T01:00:18;-3.80;99.90
4052;DHT22;2040;50.924;11.604;2023-03-12T01:02:44;-3.90;99.90
4052;DHT22;2040;50.924;11.604;2023-03-12T01:05:11;-3.90;99.90
4052;DHT22;2040;50.924;11.604;2023-03-12T01:07:37;-3.90;99.90
4052;DHT22;2040;50.924;11.604;2023-03-12T01:10:04;-3.90;99.90
4052;DHT22;2040;50.924;11.604;2023-03-12T01:12:29;-3.80;99.90
4052;DHT22;2040;50.924;11.604;2023-03-12T01:14:55;-3.70;99.90
4052;DHT22;2040;50.924;11.604;2023-03-12T01:17:20;-3.70;99.90
4052;DHT22;2040;50.924;11.604;2023-03-12T01:19:46;-3.70;99.90
4052;DHT22;2040;50.924;11.604;2023-03-12T01:22:11;-3.80;99.90
4052;DHT22;2040;50.924;11.604;2023-03-12T01:24:37;-3.90;99.90
4052;DHT22;2040;50.924;11.604;2023-03-12T01:27:03;-4.00;99.90
4052;DHT22;2040;50.924;11.604;2023-03-12T01:29:28;-4.10;99.90
4052;DHT22;2040;50.924;11.604;2023-03-12T01:31:54;-4.10;99.90
4052;DHT22;2040;50.924;11.604;2023-03-12T01:34:19;-4.00;99.90
4052;DHT22;2040;50.924;11.604;2023-03-12T01:36:45;-3.90;99.90
4052;DHT22;2040;50.924;11.604;2023-03-12T01:39:12;-3.80;99.90
4052;DHT22;2040;50.924;11.604;2023-03-12T01:41:39;-3.60;99.90
4052;DHT22;2040;50.924;11.604;2023-03-12T01:44:06;-3.50;99.90
4052;DHT22;2040;50.924;11.604;2023-03-12T01:46:38;-3.50;99.90
4052;DHT22;2040;50.924;11.604;2023-03-12T01:49:14;-3.60;99.90
4052;DHT22;2040;50.924;11.604;2023-03-12T01:51:42;-3.70;99.90
4052;DHT22;2040;50.924;11.604;2023-03-12T01:54:18;-3.70;99.90
4052;DHT22;2040;50.924;11.604;2023-03-12T01:56:45;-3.50;99.90
4052;DHT22;2040;50.924;11.604;2023-03-12T01:59:16;-3.70;99.90
4052;DHT22;2040;50.924;11.604;2023-03-12T02:01:44;-3.80;99.90
4052;DHT22;2040;50.924;11.604;2023-03-12T02:04:11;-3.90;99.90
4052;DHT22;2040;50.924;11.604;2023-03-12T02:06:45;-4.00;99.90
4052;DHT22;2040;50.924;11.604;2023-03-12T02:09:13;-4.10;99.90
4052;DHT22;2040;50.924;11.604;2023-03-12T02:11:39;-4.20;99.90
4052;DHT22;2040;50.924;11.604;2023-03-12T02:14:05;-4.20;99.90
4052;DHT22;2040;50.924;11.604;2023-03-12T02:16:31;-4.30;99.90
4052;DHT22;2040;50.924;11.604;2023-03-12T02:18:59;-4.20;99.90
4052;DHT22;2040;50.924;11.604;2023-03-12T02:21:28;-4.20;99.90
4052;DHT22;2040;50.924;11.604;2023-03-12T02:24:23;-4.30;99.90
4052;DHT22;2040;50.924;11.604;2023-03-12T02:26:45;-4.30;99.90
4052;DHT22;2040;50.924;11.604;2023-03-12T02:29:13;-4.30;99.90
4052;DHT22;2040;50.924;11.604;2023-03-12T02:31:51;-4.40;99.90
4052;DHT22;2040;50.924;11.604;2023-03-12T02:34:17;-4.40;99.90
4052;DHT22;2040;50.924;11.604;2023-03-12T02:36:43;-4.40;99.90
4052;DHT22;2040;50.924;11.604;2023-03-12T02:39:10;-4.30;99.90
4052;DHT22;2040;50.924;11.604;2023-03-12T02:41:45;-4.30;99.90
4052;DHT22;2040;50.924;11.604;2023-03-12T02:44:18;-4.20;99.90
4052;DHT22;2040;50.924;11.604;2023-03-12T02:46:48;-4.20;99.90
4052;DHT22;2040;50.924;11.604;2023-03-12T02:49:15;-4.20;99.90
4052;DHT22;2040;50.924;11.604;2023-03-12T02:51:43;-4.30;99.90
4052;DHT22;2040;50.924;11.604;2023-03-12T02:54:09;-4.40;99.90
4052;DHT22;2040;50.924;11.604;2023-03-12T02:56:36;-4.50;99.90
4052;DHT22;2040;50.924;11.604;2023-03-12T02:59:02;-4.60;99.90
4052;DHT22;2040;50.924;11.604;2023-03-12T03:01:28;-4.50;99.90
4052;DHT22;2040;50.924;11.604;2023-03-12T03:03:53;-4.60;99.90
4052;DHT22;2040;50.924;11.604;2023-03-12T03:06:19;-4.60;99.90
4052;DHT22;2040;50.924;11.604;2023-03-12T03:08:45;-4.50;99.90
4052;DHT22;2040;50.924;11.604;2023-03-12T03:11:11;-4.40;99.90
4052;DHT22;2040;50.924;11.604;2023-03-12T03:13:36;-4.30;99.90
4052;DHT22;2040;50.924;11.604;2023-03-12T03:16:05;-4.30;99.90
4052;DHT22;2040;50.924;11.604;2023-03-12T03:18:31;-4.30;99.90
4052;DHT22;2040;50.924;11.604;2023-03-12T03:21:00;-4.40;99.90
4052;DHT22;2040;50.924;11.604;2023-03-12T03:23:26;-4.40;99.90
4052;DHT22;2040;50.924;11.604;2023-03-12T03:25:51;-4.40;99.90
4052;DHT22;2040;50.924;11.604;2023-03-12T03:28:18;-4.30;99.90
4052;DHT22;2040;50.924;11.604;2023-03-12T03:30:44;-4.20;99.90
4052;DHT22;2040;50.924;11.604;2023-03-12T03:33:10;-4.30;99.90
4052;DHT22;2040;50.924;11.604;2023-03-12T03:35:35;-4.30;99.90
4052;DHT22;2040;50.924;11.604;2023-03-12T03:38:01;-4.40;99.90
4052;DHT22;2040;50.924;11.604;2023-03-12T03:40:27;-4.30;99.90
4052;DHT22;2040;50.924;11.604;2023-03-12T03:42:52;-4.20;99.90
4052;DHT22;2040;50.924;11.604;2023-03-12T03:45:18;-4.20;99.90
4052;DHT22;2040;50.924;11.604;2023-03-12T03:47:44;-4.20;99.90
4052;DHT22;2040;50.924;11.604;2023-03-12T03:50:10;-4.20;99.90
4052;DHT22;2040;50.924;11.604;2023-03-12T03:52:36;-4.20;99.90
4052;DHT22;2040;50.924;11.604;2023-03-12T03:55:01;-4.20;99.90
4052;DHT22;2040;50.924;11.604;2023-03-12T03:57:27;-4.10;99.90
4052;DHT22;2040;50.924;11.604;2023-03-12T03:59:53;-4.40;99.90
4052;DHT22;2040;50.924;11.604;2023-03-12T04:02:19;-4.50;99.90
4052;DHT22;2040;50.924;11.604;2023-03-12T04:04:45;-4.50;99.90
4052;DHT22;2040;50.924;11.604;2023-03-12T04:07:10;-4.50;99.90
4052;DHT22;2040;50.924;11.604;2023-03-12T04:09:36;-4.50;99.90
4052;DHT22;2040;50.924;11.604;2023-03-12T04:12:02;-4.50;99.90
4052;DHT22;2040;50.924;11.604;2023-03-12T04:14:27;-4.50;99.90
4052;DHT22;2040;50.924;11.604;2023-03-12T04:16:53;-4.20;99.90
4052;DHT22;2040;50.924;11.604;2023-03-12T04:19:18;-4.10;99.90
4052;DHT22;2040;50.924;11.604;2023-03-12T04:21:44;-4.20;99.90
4052;DHT22;2040;50.924;11.604;2023-03-12T04:24:14;-4.20;99.90
4052;DHT22;2040;50.924;11.604;2023-03-12T04:26:40;-4.20;99.90
4052;DHT22;2040;50.924;11.604;2023-03-12T04:29:06;-4.30;99.90
4052;DHT22;2040;50.924;11.604;2023-03-12T04:31:31;-4.20;99.90
4052;DHT22;2040;50.924;11.604;2023-03-12T04:33:57;-4.00;99.90
4052;DHT22;2040;50.924;11.604;2023-03-12T04:36:23;-3.90;99.90
4052;DHT22;2040;50.924;11.604;2023-03-12T04:38:49;-3.80;99.90
4052;DHT22;2040;50.924;11.604;2023-03-12T04:41:16;-3.70;99.90
4052;DHT22;2040;50.924;11.604;2023-03-12T04:43:41;-3.70;99.90
4052;DHT22;2040;50.924;11.604;2023-03-12T04:46:07;-3.70;99.90
4052;DHT22;2040;50.924;11.604;2023-03-12T04:48:34;-3.70;99.90
4052;DHT22;2040;50.924;11.604;2023-03-12T04:51:01;-3.70;99.90
4052;DHT22;2040;50.924;11.604;2023-03-12T04:53:27;-3.60;99.90
4052;DHT22;2040;50.924;11.604;2023-03-12T04:55:53;-3.60;99.90
4052;DHT22;2040;50.924;11.604;2023-03-12T04:58:19;-3.70;99.90
4052;DHT22;2040;50.924;11.604;2023-03-12T05:00:45;-3.50;99.90
4052;DHT22;2040;50.924;11.604;2023-03-12T05:03:11;-3.60;99.90
4052;DHT22;2040;50.924;11.604;2023-03-12T05:05:37;-3.60;99.90
4052;DHT22;2040;50.924;11.604;2023-03-12T05:08:03;-3.70;99.90
4052;DHT22;2040;50.924;11.604;2023-03-12T05:10:29;-3.70;99.90
4052;DHT22;2040;50.924;11.604;2023-03-12T05:12:54;-3.80;99.90
4052;DHT22;2040;50.924;11.604;2023-03-12T05:15:20;-3.80;99.90
4052;DHT22;2040;50.924;11.604;2023-03-12T05:17:45;-3.80;99.90
4052;DHT22;2040;50.924;11.604;2023-03-12T05:20:11;-3.80;99.90
4052;DHT22;2040;50.924;11.604;2023-03-12T05:22:37;-3.90;99.90
4052;DHT22;2040;50.924;11.604;2023-03-12T05:25:03;-3.80;99.90
4052;DHT22;2040;50.924;11.604;2023-03-12T05:27:30;-3.90;99.90
4052;DHT22;2040;50.924;11.604;2023-03-12T05:29:56;-3.80;99.90
4052;DHT22;2040;50.924;11.604;2023-03-12T05:32:22;-3.80;99.90
4052;DHT22;2040;50.924;11.604;2023-03-12T05:34:47;-3.60;99.90
4052;DHT22;2040;50.924;11.604;2023-03-12T05:37:13;-3.50;99.90
4052;DHT22;2040;50.924;11.604;2023-03-12T05:39:38;-3.50;99.90
4052;DHT22;2040;50.924;11.604;2023-03-12T05:42:11;-3.50;99.90
4052;DHT22;2040;50.924;11.604;2023-03-12T05:44:37;-3.60;99.90
4052;DHT22;2040;50.924;11.604;2023-03-12T05:47:03;-3.60;99.90
4052;DHT22;2040;50.924;11.604;2023-03-12T05:49:29;-3.60;99.90
4052;DHT22;2040;50.924;11.604;2023-03-12T05:51:55;-3.30;99.90
4052;DHT22;2040;50.924;11.604;2023-03-12T05:54:21;-3.40;99.90
4052;DHT22;2040;50.924;11.604;2023-03-12T05:56:46;-3.40;99.90
4052;DHT22;2040;50.924;11.604;2023-03-12T05:59:12;-3.40;99.90
4052;DHT22;2040;50.924;11.604;2023-03-12T06:01:38;-3.20;99.90
4052;DHT22;2040;50.924;11.604;2023-03-12T06:04:04;-3.30;99.90
4052;DHT22;2040;50.924;11.604;2023-03-12T06:06:31;-3.40;99.90
4052;DHT22;2040;50.924;11.604;2023-03-12T06:08:58;-3.40;99.90
4052;DHT22;2040;50.924;11.604;2023-03-12T06:11:23;-3.50;99.90
4052;DHT22;2040;50.924;11.604;2023-03-12T06:13:49;-3.50;99.90
4052;DHT22;2040;50.924;11.604;2023-03-12T06:16:17;-3.50;99.90
4052;DHT22;2040;50.924;11.604;2023-03-12T06:18:43;-3.50;99.90
4052;DHT22;2040;50.924;11.604;2023-03-12T06:21:15;-3.50;99.90
4052;DHT22;2040;50.924;11.604;2023-03-12T06:23:41;-3.50;99.90
4052;DHT22;2040;50.924;11.604;2023-03-12T06:26:09;-3.50;99.90
4052;DHT22;2040;50.924;11.604;2023-03-12T06:28:35;-3.50;99.90
4052;DHT22;2040;50.924;11.604;2023-03-12T06:31:01;-3.60;99.90
4052;DHT22;2040;50.924;11.604;2023-03-12T06:33:27;-3.60;99.90
4052;DHT22;2040;50.924;11.604;2023-03-12T06:35:53;-3.60;99.90
4052;DHT22;2040;50.924;11.604;2023-03-12T06:38:19;-3.60;99.90
4052;DHT22;2040;50.924;11.604;2023-03-12T06:40:56;-3.50;99.90
4052;DHT22;2040;50.924;11.604;2023-03-12T06:43:23;-3.50;99.90
4052;DHT22;2040;50.924;11.604;2023-03-12T06:45:49;-3.50;99.90
4052;DHT22;2040;50.924;11.604;2023-03-12T06:48:15;-3.50;99.90
4052;DHT22;2040;50.924;11.604;2023-03-12T06:50:41;-3.20;99.90
4052;DHT22;2040;50.924;11.604;2023-03-12T06:53:06;-3.00;99.90
4052;DHT22;2040;50.924;11.604;2023-03-12T06:55:32;-2.80;99.90
4052;DHT22;2040;50.924;11.604;2023-03-12T06:57:58;-2.60;99.90
4052;DHT22;2040;50.924;11.604;2023-03-12T07:00:23;-2.50;99.90
4052;DHT22;2040;50.924;11.604;2023-03-12T07:02:51;-2.50;99.90
4052;DHT22;2040;50.924;11.604;2023-03-12T07:05:17;-2.50;99.90
4052;DHT22;2040;50.924;11.604;2023-03-12T07:07:42;-2.40;99.90
4052;DHT22;2040;50.924;11.604;2023-03-12T07:10:10;-2.30;99.90
4052;DHT22;2040;50.924;11.604;2023-03-12T07:12:36;-2.20;99.90
4052;DHT22;2040;50.924;11.604;2023-03-12T07:15:02;-2.00;99.90
4052;DHT22;2040;50.924;11.604;2023-03-12T07:17:27;-1.90;99.90
4052;DHT22;2040;50.924;11.604;2023-03-12T07:19:53;-1.80;99.90
4052;DHT22;2040;50.924;11.604;2023-03-12T07:22:18;-1.60;99.90
4052;DHT22;2040;50.924;11.604;2023-03-12T07:24:44;-1.50;99.90
4052;DHT22;2040;50.924;11.604;2023-03-12T07:27:09;-1.40;99.90
4052;DHT22;2040;50.924;11.604;2023-03-12T07:29:35;-1.30;99.90
4052;DHT22;2040;50.924;11.604;2023-03-12T07:32:00;-1.20;99.90
4052;DHT22;2040;50.924;11.604;2023-03-12T07:34:26;-1.20;99.90
4052;DHT22;2040;50.924;11.604;2023-03-12T07:36:52;-1.20;99.90
4052;DHT22;2040;50.924;11.604;2023-03-12T07:39:19;-1.30;99.90
4052;DHT22;2040;50.924;11.604;2023-03-12T07:41:44;-1.30;99.90
4052;DHT22;2040;50.924;11.604;2023-03-12T07:44:10;-1.30;99.90
4052;DHT22;2040;50.924;11.604;2023-03-12T07:46:36;-1.30;99.90
4052;DHT22;2040;50.924;11.604;2023-03-12T07:49:01;-1.10;99.90
4052;DHT22;2040;50.924;11.604;2023-03-12T07:51:30;-0.80;99.90
4052;DHT22;2040;50.924;11.604;2023-03-12T07:53:55;-0.60;99.90
4052;DHT22;2040;50.924;11.604;2023-03-12T07:56:21;-0.30;99.90
4052;DHT22;2040;50.924;11.604;2023-03-12T07:58:47;-0.20;99.90
4052;DHT22;2040;50.924;11.604;2023-03-12T08:01:13;-0.10;99.90
4052;DHT22;2040;50.924;11.604;2023-03-12T08:03:38;-0.10;99.90
4052;DHT22;2040;50.924;11.604;2023-03-12T08:06:04;0.00;99.90
4052;DHT22;2040;50.924;11.604;2023-03-12T08:08:30;0.10;99.90
4052;DHT22;2040;50.924;11.604;2023-03-12T08:10:57;0.20;99.90
4052;DHT22;2040;50.924;11.604;2023-03-12T08:13:24;0.30;99.90
4052;DHT22;2040;50.924;11.604;2023-03-12T08:15:51;0.20;99.90
4052;DHT22;2040;50.924;11.604;2023-03-12T08:18:18;0.30;99.90
4052;DHT22;2040;50.924;11.604;2023-03-12T08:20:44;0.40;99.90
4052;DHT22;2040;50.924;11.604;2023-03-12T08:23:10;0.50;99.90
4052;DHT22;2040;50.924;11.604;2023-03-12T08:25:36;0.70;99.90
4052;DHT22;2040;50.924;11.604;2023-03-12T08:28:03;0.80;99.90
4052;DHT22;2040;50.924;11.604;2023-03-12T08:30:29;0.90;99.90
4052;DHT22;2040;50.924;11.604;2023-03-12T08:32:55;1.00;99.90
4052;DHT22;2040;50.924;11.604;2023-03-12T08:35:21;1.00;99.90
4052;DHT22;2040;50.924;11.604;2023-03-12T08:37:46;1.10;99.90
4052;DHT22;2040;50.924;11.604;2023-03-12T08:40:12;1.10;99.90
4052;DHT22;2040;50.924;11.604;2023-03-12T08:42:42;1.20;99.90
4052;DHT22;2040;50.924;11.604;2023-03-12T08:45:09;1.50;99.90
4052;DHT22;2040;50.924;11.604;2023-03-12T08:47:34;1.70;99.90
4052;DHT22;2040;50.924;11.604;2023-03-12T08:50:00;1.90;99.90
4052;DHT22;2040;50.924;11.604;2023-03-12T08:52:26;2.00;99.90
4052;DHT22;2040;50.924;11.604;2023-03-12T08:54:52;2.30;99.90
4052;DHT22;2040;50.924;11.604;2023-03-12T08:57:17;2.30;99.90
4052;DHT22;2040;50.924;11.604;2023-03-12T08:59:43;2.30;99.90
4052;DHT22;2040;50.924;11.604;2023-03-12T09:02:12;2.50;99.90
4052;DHT22;2040;50.924;11.604;2023-03-12T09:04:38;2.70;99.90
4052;DHT22;2040;50.924;11.604;2023-03-12T09:07:04;2.60;99.90
4052;DHT22;2040;50.924;11.604;2023-03-12T09:09:29;2.70;99.90
4052;DHT22;2040;50.924;11.604;2023-03-12T09:11:55;2.60;99.90
4052;DHT22;2040;50.924;11.604;2023-03-12T09:14:21;2.80;99.90
4052;DHT22;2040;50.924;11.604;2023-03-12T09:16:47;2.80;99.90
4052;DHT22;2040;50.924;11.604;2023-03-12T09:19:12;2.90;99.90
4052;DHT22;2040;50.924;11.604;2023-03-12T09:21:38;2.80;99.90
4052;DHT22;2040;50.924;11.604;2023-03-12T09:24:05;2.80;99.90
4052;DHT22;2040;50.924;11.604;2023-03-12T09:26:30;2.80;99.90
4052;DHT22;2040;50.924;11.604;2023-03-12T09:28:56;2.90;99.90
4052;DHT22;2040;50.924;11.604;2023-03-12T09:31:23;3.20;99.90
4052;DHT22;2040;50.924;11.604;2023-03-12T09:33:48;3.30;99.90
4052;DHT22;2040;50.924;11.604;2023-03-12T09:36:14;3.30;99.90
4052;DHT22;2040;50.924;11.604;2023-03-12T09:38:39;3.60;99.90
4052;DHT22;2040;50.924;11.604;2023-03-12T09:41:22;4.00;99.90
4052;DHT22;2040;50.924;11.604;2023-03-12T09:43:57;4.40;99.90
4052;DHT22;2040;50.924;11.604;2023-03-12T09:46:37;4.40;99.90
4052;DHT22;2040;50.924;11.604;2023-03-12T09:49:15;4.30;99.90
4052;DHT22;2040;50.924;11.604;2023-03-12T09:51:45;4.30;99.90
4052;DHT22;2040;50.924;11.604;2023-03-12T09:54:29;4.10;99.90
4052;DHT22;2040;50.924;11.604;2023-03-12T09:57:01;4.00;99.90
4052;DHT22;2040;50.924;11.604;2023-03-12T09:59:27;4.10;99.90
4052;DHT22;2040;50.924;11.604;2023-03-12T10:01:59;4.40;99.90
4052;DHT22;2040;50.924;11.604;2023-03-12T10:04:37;4.70;99.90
4052;DHT22;2040;50.924;11.604;2023-03-12T10:21:24;4.40;99.90
4052;DHT22;2040;50.924;11.604;2023-03-12T10:23:57;4.60;99.90
4052;DHT22;2040;50.924;11.604;2023-03-12T10:26:30;4.70;99.90
4052;DHT22;2040;50.924;11.604;2023-03-12T10:29:02;4.80;99.90
4052;DHT22;2040;50.924;11.604;2023-03-12T10:31:35;4.90;99.90
4052;DHT22;2040;50.924;11.604;2023-03-12T10:34:13;5.00;99.90
4052;DHT22;2040;50.924;11.604;2023-03-12T10:36:40;5.00;99.90
4052;DHT22;2040;50.924;11.604;2023-03-12T10:39:13;5.00;99.90
4052;DHT22;2040;50.924;11.604;2023-03-12T10:41:41;5.20;99.90
4052;DHT22;2040;50.924;11.604;2023-03-12T10:44:08;5.20;99.90
4052;DHT22;2040;50.924;11.604;2023-03-12T10:46:46;5.20;99.90
4052;DHT22;2040;50.924;11.604;2023-03-12T10:49:29;5.30;99.90
4052;DHT22;2040;50.924;11.604;2023-03-12T10:52:09;5.30;99.90
4052;DHT22;2040;50.924;11.604;2023-03-12T10:54:40;5.10;99.90
4052;DHT22;2040;50.924;11.604;2023-03-12T10:57:08;5.20;99.90
4052;DHT22;2040;50.924;11.604;2023-03-12T10:59:36;5.30;99.90
4052;DHT22;2040;50.924;11.604;2023-03-12T11:04:57;5.40;99.90
4052;DHT22;2040;50.924;11.604;2023-03-12T11:07:34;5.40;99.90
4052;DHT22;2040;50.924;11.604;2023-03-12T11:12:33;5.60;99.90
4052;DHT22;2040;50.924;11.604;2023-03-12T11:17:43;5.50;99.90
4052;DHT22;2040;50.924;11.604;2023-03-12T11:22:47;5.30;99.90
4052;DHT22;2040;50.924;11.604;2023-03-12T11:25:23;5.20;99.90
4052;DHT22;2040;50.924;11.604;2023-03-12T11:27:53;5.20;99.90
4052;DHT22;2040;50.924;11.604;2023-03-12T11:30:28;5.10;99.90
4052;DHT22;2040;50.924;11.604;2023-03-12T11:32:56;5.00;99.90
4052;DHT22;2040;50.924;11.604;2023-03-12T11:36:03;5.00;99.90
4052;DHT22;2040;50.924;11.604;2023-03-12T11:38:39;5.10;99.90
4052;DHT22;2040;50.924;11.604;2023-03-12T11:41:43;5.10;99.90
4052;DHT22;2040;50.924;11.604;2023-03-12T11:44:27;5.10;99.90
4052;DHT22;2040;50.924;11.604;2023-03-12T11:47:08;5.10;99.90
4052;DHT22;2040;50.924;11.604;2023-03-12T11:50:00;4.90;99.90
4052;DHT22;2040;50.924;11.604;2023-03-12T12:06:42;4.90;99.90
4052;DHT22;2040;50.924;11.604;2023-03-12T12:14:51;4.80;99.90
4052;DHT22;2040;50.924;11.604;2023-03-12T12:17:43;4.80;99.90
4052;DHT22;2040;50.924;11.604;2023-03-12T12:20:27;4.80;99.90
4052;DHT22;2040;50.924;11.604;2023-03-12T12:23:16;4.70;99.90
4052;DHT22;2040;50.924;11.604;2023-03-12T12:25:50;4.50;99.90
4052;DHT22;2040;50.924;11.604;2023-03-12T12:28:36;4.50;99.90
4052;DHT22;2040;50.924;11.604;2023-03-12T12:31:17;4.40;99.90
4052;DHT22;2040;50.924;11.604;2023-03-12T12:33:58;4.40;99.90
4052;DHT22;2040;50.924;11.604;2023-03-12T12:36:32;4.30;99.90
4052;DHT22;2040;50.924;11.604;2023-03-12T12:39:08;4.30;99.90
4052;DHT22;2040;50.924;11.604;2023-03-12T12:41:38;4.30;99.90
4052;DHT22;2040;50.924;11.604;2023-03-12T12:44:26;4.30;99.90
4052;DHT22;2040;50.924;11.604;2023-03-12T12:47:01;4.30;99.90
4052;DHT22;2040;50.924;11.604;2023-03-12T12:49:38;4.20;99.90
4052;DHT22;2040;50.924;11.604;2023-03-12T12:52:09;4.20;99.90
4052;DHT22;2040;50.924;11.604;2023-03-12T12:57:14;4.20;99.90
4052;DHT22;2040;50.924;11.604;2023-03-12T13:02:16;4.30;99.90
4052;DHT22;2040;50.924;11.604;2023-03-12T13:04:44;4.40;99.90
4052;DHT22;2040;50.924;11.604;2023-03-12T13:12:17;4.60;99.90
4052;DHT22;2040;50.924;11.604;2023-03-12T13:14:44;4.50;99.90
4052;DHT22;2040;50.924;11.604;2023-03-12T13:17:23;4.50;99.90
4052;DHT22;2040;50.924;11.604;2023-03-12T13:19:51;4.60;99.90
4052;DHT22;2040;50.924;11.604;2023-03-12T13:25:08;4.60;99.90
4052;DHT22;2040;50.924;11.604;2023-03-12T13:27:38;4.60;99.90
4052;DHT22;2040;50.924;11.604;2023-03-12T13:40:39;4.70;99.90
4052;DHT22;2040;50.924;11.604;2023-03-12T13:46:46;4.80;99.90
4052;DHT22;2040;50.924;11.604;2023-03-12T13:48:47;4.90;99.90
4052;DHT22;2040;50.924;11.604;2023-03-12T13:51:22;4.80;99.90
4052;DHT22;2040;50.924;11.604;2023-03-12T13:53:52;4.80;99.90
4052;DHT22;2040;50.924;11.604;2023-03-12T13:56:25;4.80;99.90
4052;DHT22;2040;50.924;11.604;2023-03-12T13:59:00;4.80;99.90
4052;DHT22;2040;50.924;11.604;2023-03-12T14:01:30;4.80;99.90
4052;DHT22;2040;50.924;11.604;2023-03-12T14:03:59;4.90;99.90
4052;DHT22;2040;50.924;11.604;2023-03-12T14:06:28;4.90;99.90
4052;DHT22;2040;50.924;11.604;2023-03-12T14:09:16;5.00;99.90
4052;DHT22;2040;50.924;11.604;2023-03-12T14:14:47;5.00;99.90
4052;DHT22;2040;50.924;11.604;2023-03-12T14:17:22;5.00;99.90
4052;DHT22;2040;50.924;11.604;2023-03-12T14:22:38;4.90;99.90
4052;DHT22;2040;50.924;11.604;2023-03-12T14:27:55;5.00;99.90
4052;DHT22;2040;50.924;11.604;2023-03-12T14:30:23;5.00;99.90
4052;DHT22;2040;50.924;11.604;2023-03-12T14:32:55;5.00;99.90
4052;DHT22;2040;50.924;11.604;2023-03-12T14:35:25;5.10;99.90
4052;DHT22;2040;50.924;11.604;2023-03-12T14:38:06;5.10;99.90
4052;DHT22;2040;50.924;11.604;2023-03-12T14:43:26;5.10;99.90
4052;DHT22;2040;50.924;11.604;2023-03-12T14:45:57;5.00;99.90
4052;DHT22;2040;50.924;11.604;2023-03-12T14:48:27;4.90;99.90
4052;DHT22;2040;50.924;11.604;2023-03-12T14:50:54;4.90;99.90
4052;DHT22;2040;50.924;11.604;2023-03-12T14:53:27;5.00;99.90
4052;DHT22;2040;50.924;11.604;2023-03-12T14:58:54;5.00;99.90
4052;DHT22;2040;50.924;11.604;2023-03-12T15:01:28;5.00;99.90
4052;DHT22;2040;50.924;11.604;2023-03-12T15:04:01;5.00;99.90
4052;DHT22;2040;50.924;11.604;2023-03-12T15:06:30;5.00;99.90
4052;DHT22;2040;50.924;11.604;2023-03-12T15:08:58;4.90;99.90
4052;DHT22;2040;50.924;11.604;2023-03-12T15:11:26;4.90;99.90
4052;DHT22;2040;50.924;11.604;2023-03-12T15:13:54;4.90;99.90
4052;DHT22;2040;50.924;11.604;2023-03-12T15:16:20;4.90;99.90
4052;DHT22;2040;50.924;11.604;2023-03-12T15:18:46;4.90;99.90
4052;DHT22;2040;50.924;11.604;2023-03-12T15:21:14;5.00;99.90
4052;DHT22;2040;50.924;11.604;2023-03-12T15:23:42;5.00;99.90
4052;DHT22;2040;50.924;11.604;2023-03-12T15:28:36;5.10;99.90
4052;DHT22;2040;50.924;11.604;2023-03-12T15:33:31;5.10;99.90
4052;DHT22;2040;50.924;11.604;2023-03-12T15:38:51;5.10;99.90
4052;DHT22;2040;50.924;11.604;2023-03-12T15:41:26;5.10;99.90
4052;DHT22;2040;50.924;11.604;2023-03-12T15:43:56;5.10;99.90
4052;DHT22;2040;50.924;11.604;2023-03-12T15:46:24;5.10;99.90
4052;DHT22;2040;50.924;11.604;2023-03-12T15:48:56;5.20;99.90
4052;DHT22;2040;50.924;11.604;2023-03-12T15:51:36;5.20;99.90
4052;DHT22;2040;50.924;11.604;2023-03-12T15:56:42;5.20;99.90
4052;DHT22;2040;50.924;11.604;2023-03-12T15:59:25;5.20;99.90
4052;DHT22;2040;50.924;11.604;2023-03-12T16:01:52;5.20;99.90
4052;DHT22;2040;50.924;11.604;2023-03-12T16:04:19;5.10;99.90
4052;DHT22;2040;50.924;11.604;2023-03-12T16:06:45;5.10;99.90
4052;DHT22;2040;50.924;11.604;2023-03-12T16:09:18;5.10;99.90
4052;DHT22;2040;50.924;11.604;2023-03-12T16:11:46;5.10;99.90
4052;DHT22;2040;50.924;11.604;2023-03-12T16:14:21;5.10;99.90
4052;DHT22;2040;50.924;11.604;2023-03-12T16:16:49;5.00;99.90
4052;DHT22;2040;50.924;11.604;2023-03-12T16:19:17;5.10;99.90
4052;DHT22;2040;50.924;11.604;2023-03-12T16:21:43;5.10;99.90
4052;DHT22;2040;50.924;11.604;2023-03-12T16:24:09;5.10;99.90
4052;DHT22;2040;50.924;11.604;2023-03-12T16:26:37;5.10;99.90
4052;DHT22;2040;50.924;11.604;2023-03-12T16:29:05;5.10;99.90
4052;DHT22;2040;50.924;11.604;2023-03-12T16:31:31;5.10;99.90
4052;DHT22;2040;50.924;11.604;2023-03-12T16:33:56;5.10;99.90
4052;DHT22;2040;50.924;11.604;2023-03-12T16:36:22;5.10;99.90
4052;DHT22;2040;50.924;11.604;2023-03-12T16:38:48;5.10;99.90
4052;DHT22;2040;50.924;11.604;2023-03-12T16:41:16;5.10;99.90
4052;DHT22;2040;50.924;11.604;2023-03-12T16:43:45;5.10;99.90
4052;DHT22;2040;50.924;11.604;2023-03-12T16:46:17;5.10;99.90
4052;DHT22;2040;50.924;11.604;2023-03-12T16:48:44;5.10;99.90
4052;DHT22;2040;50.924;11.604;2023-03-12T16:51:14;5.10;99.90
4052;DHT22;2040;50.924;11.604;2023-03-12T16:53:40;5.10;99.90
4052;DHT22;2040;50.924;11.604;2023-03-12T16:56:10;5.10;99.90
4052;DHT22;2040;50.924;11.604;2023-03-12T16:58:38;5.10;99.90
4052;DHT22;2040;50.924;11.604;2023-03-12T17:01:04;5.10;99.90
4052;DHT22;2040;50.924;11.604;2023-03-12T17:03:38;5.10;99.90
4052;DHT22;2040;50.924;11.604;2023-03-12T17:06:05;5.10;99.90
4052;DHT22;2040;50.924;11.604;2023-03-12T17:08:31;5.10;99.90
4052;DHT22;2040;50.924;11.604;2023-03-12T17:10:58;5.00;99.90
4052;DHT22;2040;50.924;11.604;2023-03-12T17:13:27;5.00;99.90
4052;DHT22;2040;50.924;11.604;2023-03-12T17:15:53;4.90;99.90
4052;DHT22;2040;50.924;11.604;2023-03-12T17:18:20;4.90;99.90
4052;DHT22;2040;50.924;11.604;2023-03-12T17:20:47;4.80;99.90
4052;DHT22;2040;50.924;11.604;2023-03-12T17:23:13;4.80;99.90
4052;DHT22;2040;50.924;11.604;2023-03-12T17:25:42;4.80;99.90
4052;DHT22;2040;50.924;11.604;2023-03-12T17:28:10;4.80;99.90
4052;DHT22;2040;50.924;11.604;2023-03-12T17:30:36;4.80;99.90
4052;DHT22;2040;50.924;11.604;2023-03-12T17:33:05;4.80;99.90
4052;DHT22;2040;50.924;11.604;2023-03-12T17:35:31;4.80;99.90
4052;DHT22;2040;50.924;11.604;2023-03-12T17:37:57;4.90;99.90
4052;DHT22;2040;50.924;11.604;2023-03-12T17:40:23;5.00;99.90